Time;durP1;ratioP1;P1;durP2;ratioP2;P2;SDS_P1;SDS_P2;PMS_P1;PMS_P2;Temp;Humidity;BMP_temperature;BMP_pressure;BME280_temperature;BME280_humidity;BME280_pressure;Samples;Min_cycle;Max_cycle;Signal;HPM_P1;HPM_P2
2023/09/29 00:02:10;;;;;;;18.58;12.07;;;;;;;;;;4943583;29;20070;-92
2023/09/29 00:04:36;;;;;;;16.88;12.30;;;;;;;;;;4942887;28;20023;-92
2023/09/29 00:07:03;;;;;;;17.10;11.32;;;;;;;;;;4960442;29;20031;-93
2023/09/29 00:09:29;;;;;;;19.85;12.02;;;;;;;;;;4943187;29;20023;-92
2023/09/29 00:18:51;;;;;;;19.13;10.32;;;;;;;;;;4960340;29;20110;-92
2023/09/29 00:21:17;;;;;;;18.20;10.93;;;;;;;;;;4943107;29;20042;-92
2023/09/29 00:23:44;;;;;;;16.25;10.13;;;;;;;;;;4959659;28;20437;-93
2023/09/29 00:29:20;;;;;;;15.88;10.55;;;;;;;;;;4960140;29;20155;-92
2023/09/29 00:31:46;;;;;;;16.27;10.82;;;;;;;;;;4960042;29;20086;-92
2023/09/29 00:34:12;;;;;;;18.10;10.70;;;;;;;;;;4960083;29;20041;-92
2023/09/29 00:36:39;;;;;;;17.17;10.82;;;;;;;;;;4959994;28;20090;-93
2023/09/29 00:39:08;;;;;;;22.58;11.07;;;;;;;;;;4959901;29;20027;-92
2023/09/29 00:44:39;;;;;;;18.70;10.60;;;;;;;;;;4961216;28;20030;-92
2023/09/29 00:47:05;;;;;;;24.38;11.38;;;;;;;;;;4978971;28;20030;-92
2023/09/29 00:49:32;;;;;;;20.05;11.32;;;;;;;;;;4961853;28;20095;-92
2023/09/29 00:51:59;;;;;;;17.65;11.40;;;;;;;;;;4961147;28;20027;-92
2023/09/29 00:54:27;;;;;;;20.98;10.80;;;;;;;;;;4942671;29;20370;-94
2023/09/29 00:56:53;;;;;;;16.90;11.77;;;;;;;;;;4959520;28;20031;-94
2023/09/29 00:59:20;;;;;;;21.00;11.40;;;;;;;;;;4942544;29;20055;-93
2023/09/29 01:01:47;;;;;;;23.58;12.15;;;;;;;;;;4959772;29;20321;-93
2023/09/29 01:04:13;;;;;;;19.02;12.20;;;;;;;;;;4942503;29;20046;-92
2023/09/29 01:06:39;;;;;;;19.95;11.05;;;;;;;;;;4942515;29;20023;-93
2023/09/29 01:09:06;;;;;;;13.77;11.25;;;;;;;;;;4942466;29;20091;-93
2023/09/29 01:11:52;;;;;;;17.60;11.52;;;;;;;;;;4959736;28;20027;-92
2023/09/29 01:14:18;;;;;;;15.63;12.35;;;;;;;;;;4942458;29;20099;-92
2023/09/29 01:16:45;;;;;;;16.40;11.85;;;;;;;;;;4961044;28;20031;-93
2023/09/29 01:19:12;;;;;;;17.02;11.75;;;;;;;;;;4946485;29;20027;-92
2023/09/29 01:21:44;;;;;;;16.95;12.13;;;;;;;;;;4963323;28;20027;-93
2023/09/29 01:24:10;;;;;;;17.70;11.45;;;;;;;;;;4962874;28;20066;-92
2023/09/29 01:26:36;;;;;;;20.00;12.20;;;;;;;;;;4947228;29;20027;-93
2023/09/29 01:29:03;;;;;;;20.95;12.07;;;;;;;;;;4963667;28;20102;-92
2023/09/29 01:31:33;;;;;;;25.70;12.30;;;;;;;;;;4965121;28;20054;-92
2023/09/29 01:34:04;;;;;;;26.58;12.45;;;;;;;;;;4982279;28;20106;-92
2023/09/29 01:36:33;;;;;;;16.97;12.00;;;;;;;;;;4982220;28;20436;-92
2023/09/29 01:39:00;;;;;;;24.83;12.43;;;;;;;;;;4982048;28;20027;-92
2023/09/29 01:41:43;;;;;;;22.83;12.40;;;;;;;;;;4964712;28;20033;-92
2023/09/29 01:44:09;;;;;;;20.90;13.00;;;;;;;;;;4982064;28;20031;-91
2023/09/29 01:46:36;;;;;;;24.30;12.65;;;;;;;;;;4965107;28;20022;-91
2023/09/29 01:49:02;;;;;;;19.27;13.45;;;;;;;;;;4982188;28;20077;-92
2023/09/29 01:51:29;;;;;;;24.25;13.75;;;;;;;;;;4964689;28;20045;-91
2023/09/29 01:53:55;;;;;;;27.88;13.23;;;;;;;;;;4964664;28;20034;-93
2023/09/29 01:56:21;;;;;;;18.63;12.90;;;;;;;;;;4964980;28;20030;-91
2023/09/29 01:58:50;;;;;;;17.85;12.95;;;;;;;;;;4982231;28;20061;-92
2023/09/29 02:01:16;;;;;;;22.90;12.13;;;;;;;;;;4964905;28;20027;-92
2023/09/29 02:03:48;;;;;;;25.67;13.00;;;;;;;;;;4980199;28;20035;-92
2023/09/29 02:06:15;;;;;;;22.08;12.50;;;;;;;;;;4981155;28;20059;-93
2023/09/29 02:08:42;;;;;;;16.88;11.52;;;;;;;;;;4964733;28;20034;-92
2023/09/29 02:11:08;;;;;;;20.42;12.65;;;;;;;;;;4981896;28;20023;-91
2023/09/29 02:13:35;;;;;;;18.08;13.45;;;;;;;;;;4964644;28;20074;-91
2023/09/29 02:16:05;;;;;;;21.45;12.27;;;;;;;;;;4955318;28;20039;-90
2023/09/29 02:18:31;;;;;;;20.80;11.80;;;;;;;;;;4968510;28;20059;-90
2023/09/29 02:20:57;;;;;;;24.98;13.15;;;;;;;;;;4983230;28;20046;-91
2023/09/29 02:23:23;;;;;;;32.22;13.02;;;;;;;;;;4989839;28;20047;-91
2023/09/29 02:25:51;;;;;;;20.15;12.93;;;;;;;;;;4964540;28;20114;-91
2023/09/29 02:28:20;;;;;;;21.42;12.15;;;;;;;;;;4980107;28;20051;-95
2023/09/29 02:30:46;;;;;;;20.33;12.88;;;;;;;;;;4981695;28;20031;-91
2023/09/29 02:33:12;;;;;;;17.92;13.23;;;;;;;;;;4964650;28;20027;-91
2023/09/29 02:35:38;;;;;;;17.50;12.23;;;;;;;;;;4981212;28;20106;-91
2023/09/29 02:38:04;;;;;;;20.65;11.90;;;;;;;;;;4953409;29;20027;-91
2023/09/29 02:40:30;;;;;;;18.52;12.45;;;;;;;;;;4967006;28;20031;-92
2023/09/29 02:42:56;;;;;;;17.45;12.65;;;;;;;;;;4944842;29;20027;-91
2023/09/29 02:45:24;;;;;;;21.90;12.48;;;;;;;;;;4961966;29;20155;-90
2023/09/29 02:47:52;;;;;;;21.60;12.10;;;;;;;;;;4963601;28;20454;-92
2023/09/29 02:50:18;;;;;;;16.27;11.88;;;;;;;;;;4963885;28;20041;-91
2023/09/29 02:52:44;;;;;;;18.63;12.80;;;;;;;;;;4981176;28;20078;-92
2023/09/29 02:55:12;;;;;;;16.10;12.32;;;;;;;;;;4964139;28;20103;-93
2023/09/29 02:57:40;;;;;;;19.65;11.95;;;;;;;;;;4963368;28;20426;-92
2023/09/29 03:00:07;;;;;;;18.20;12.57;;;;;;;;;;4964059;28;20055;-92
2023/09/29 03:02:33;;;;;;;15.48;12.52;;;;;;;;;;4981041;28;20070;-92
2023/09/29 03:04:59;;;;;;;17.25;12.13;;;;;;;;;;4963125;28;20085;-91
2023/09/29 03:07:25;;;;;;;22.80;12.80;;;;;;;;;;4963805;28;20037;-91
2023/09/29 03:09:51;;;;;;;19.95;12.23;;;;;;;;;;4962507;28;20031;-91
2023/09/29 03:12:17;;;;;;;15.68;11.40;;;;;;;;;;4963614;28;20070;-92
2023/09/29 03:14:43;;;;;;;19.42;12.80;;;;;;;;;;4980796;28;20109;-92
2023/09/29 03:17:09;;;;;;;18.98;13.02;;;;;;;;;;4980813;28;20035;-91
2023/09/29 03:19:36;;;;;;;18.70;13.20;;;;;;;;;;4965312;28;20038;-91
2023/09/29 03:22:02;;;;;;;24.10;13.25;;;;;;;;;;4943717;29;20031;-92
2023/09/29 03:24:28;;;;;;;17.80;13.07;;;;;;;;;;4960761;29;20051;-92
2023/09/29 03:26:55;;;;;;;21.25;14.23;;;;;;;;;;4961271;29;20365;-92
2023/09/29 03:29:21;;;;;;;19.38;13.93;;;;;;;;;;4958611;28;20042;-93
2023/09/29 03:31:47;;;;;;;19.30;14.13;;;;;;;;;;4966238;28;20313;-91
2023/09/29 03:34:17;;;;;;;21.88;14.80;;;;;;;;;;4961095;29;20035;-92
2023/09/29 03:36:43;;;;;;;29.13;14.68;;;;;;;;;;4960814;29;20375;-93
2023/09/29 03:39:09;;;;;;;24.65;14.57;;;;;;;;;;4960445;28;20358;-94
2023/09/29 03:41:35;;;;;;;23.42;14.57;;;;;;;;;;4959895;29;20046;-94
2023/09/29 03:44:01;;;;;;;24.70;15.00;;;;;;;;;;4943689;29;20429;-94
2023/09/29 03:46:29;;;;;;;22.67;14.70;;;;;;;;;;4943675;29;20028;-95
2023/09/29 03:48:55;;;;;;;22.15;13.90;;;;;;;;;;4960790;28;20031;-94
2023/09/29 03:51:24;;;;;;;16.83;13.63;;;;;;;;;;4943622;29;20038;-94
2023/09/29 03:53:51;;;;;;;21.90;13.75;;;;;;;;;;4960922;29;20028;-95
2023/09/29 03:56:23;;;;;;;18.90;14.30;;;;;;;;;;4960741;29;20039;-94
2023/09/29 03:58:50;;;;;;;28.08;15.60;;;;;;;;;;4943558;29;20027;-94
2023/09/29 04:01:16;;;;;;;22.25;15.82;;;;;;;;;;4960251;29;20413;-94
2023/09/29 04:03:42;;;;;;;25.05;16.23;;;;;;;;;;4943367;29;20023;-94
2023/09/29 04:06:09;;;;;;;21.00;15.65;;;;;;;;;;4960644;29;20032;-95
2023/09/29 04:08:35;;;;;;;23.58;15.48;;;;;;;;;;4967284;28;20042;-94
2023/09/29 04:14:04;;;;;;;18.30;14.48;;;;;;;;;;4979933;28;20030;-94
2023/09/29 04:16:30;;;;;;;21.50;14.88;;;;;;;;;;4979700;28;20039;-95
2023/09/29 04:18:56;;;;;;;27.48;15.15;;;;;;;;;;4962103;28;20027;-94
2023/09/29 04:21:22;;;;;;;29.70;15.63;;;;;;;;;;4979521;28;20413;-94
2023/09/29 04:23:48;;;;;;;25.92;15.90;;;;;;;;;;4979119;28;20051;-95
2023/09/29 04:29:18;;;;;;;22.75;16.55;;;;;;;;;;4979243;28;20057;-95
2023/09/29 04:31:45;;;;;;;22.58;17.25;;;;;;;;;;4962187;28;20050;-95
2023/09/29 04:34:11;;;;;;;29.77;18.45;;;;;;;;;;4962114;28;20329;-95
2023/09/29 04:36:37;;;;;;;28.42;19.08;;;;;;;;;;4979432;28;20042;-94
2023/09/29 04:39:04;;;;;;;31.10;19.45;;;;;;;;;;4961432;28;20033;-94
2023/09/29 04:44:33;;;;;;;33.83;17.83;;;;;;;;;;4979324;28;20095;-95
2023/09/29 04:47:00;;;;;;;32.65;18.02;;;;;;;;;;4962053;28;20105;-95
2023/09/29 04:49:26;;;;;;;25.33;17.08;;;;;;;;;;4961945;28;20027;-96
2023/09/29 04:51:52;;;;;;;27.17;17.30;;;;;;;;;;4961429;28;20077;-94
2023/09/29 04:54:18;;;;;;;25.48;17.10;;;;;;;;;;4961894;28;20421;-94
2023/09/29 05:03:06;;;;;;;25.92;16.25;;;;;;;;;;4959451;28;20038;-95
2023/09/29 05:05:33;;;;;;;24.38;14.88;;;;;;;;;;4957324;28;20035;-94
2023/09/29 05:07:59;;;;;;;25.27;15.77;;;;;;;;;;4962038;28;20039;-95
2023/09/29 05:10:26;;;;;;;24.55;16.08;;;;;;;;;;4978974;28;20027;-93
2023/09/29 05:12:53;;;;;;;28.98;16.75;;;;;;;;;;4946964;29;20054;-94
2023/09/29 05:15:19;;;;;;;25.23;14.52;;;;;;;;;;4942618;29;20023;-94
2023/09/29 05:17:45;;;;;;;22.23;15.00;;;;;;;;;;4942911;29;20055;-94
2023/09/29 05:31:33;;;;;;;23.02;14.95;;;;;;;;;;5095298;27;20374;-94
2023/09/29 05:33:59;;;;;;;27.50;15.40;;;;;;;;;;5094199;28;20028;-95
2023/09/29 05:36:27;;;;;;;21.13;15.43;;;;;;;;;;5095266;28;20020;-94
2023/09/29 05:44:15;;;;;;;23.88;15.15;;;;;;;;;;5127499;22;20049;-93
2023/09/29 05:54:57;;;;;;;46.28;33.35;;;;;;;;;;5477702;22;20080;-82
2023/09/29 05:57:23;;;;;;;29.13;18.15;;;;;;;;;;5036059;28;20051;-81
2023/09/29 05:59:51;;;;;;;23.85;16.17;;;;;;;;;;5051889;28;20029;-82
2023/09/29 06:02:17;;;;;;;23.83;15.38;;;;;;;;;;5053625;28;20039;-81
2023/09/29 06:04:43;;;;;;;18.75;15.77;;;;;;;;;;5053442;28;20035;-81
2023/09/29 06:07:09;;;;;;;27.88;16.10;;;;;;;;;;5049197;28;20052;-81
2023/09/29 06:09:35;;;;;;;23.23;17.58;;;;;;;;;;5023260;28;20084;-81
2023/09/29 06:12:01;;;;;;;54.35;37.70;;;;;;;;;;5037059;28;20047;-81
2023/09/29 06:14:31;;;;;;;32.03;24.92;;;;;;;;;;5033554;28;20108;-82
2023/09/29 06:16:57;;;;;;;27.20;19.55;;;;;;;;;;5033453;28;20411;-82
2023/09/29 06:19:24;;;;;;;29.58;15.30;;;;;;;;;;5033339;28;20037;-82
2023/09/29 06:21:53;;;;;;;20.98;14.63;;;;;;;;;;5036728;28;20067;-88
2023/09/29 06:24:19;;;;;;;23.50;15.20;;;;;;;;;;5042494;28;20069;-82
2023/09/29 06:26:46;;;;;;;20.00;13.27;;;;;;;;;;5001728;28;20324;-82
2023/09/29 06:29:12;;;;;;;28.35;13.82;;;;;;;;;;5005645;28;20030;-81
2023/09/29 06:31:38;;;;;;;21.63;13.15;;;;;;;;;;4988734;28;20030;-80
2023/09/29 06:34:05;;;;;;;21.23;14.90;;;;;;;;;;5000173;28;20121;-80
2023/09/29 06:36:32;;;;;;;29.48;22.08;;;;;;;;;;4983010;28;20034;-80
2023/09/29 06:38:58;;;;;;;20.98;15.10;;;;;;;;;;5000444;28;20113;-79
2023/09/29 06:41:24;;;;;;;23.60;15.82;;;;;;;;;;5002390;28;20033;-81
2023/09/29 06:43:52;;;;;;;20.55;14.70;;;;;;;;;;4987604;28;20122;-80
2023/09/29 06:46:19;;;;;;;22.42;14.18;;;;;;;;;;5000073;28;20046;-80
2023/09/29 06:48:45;;;;;;;20.50;12.63;;;;;;;;;;5017535;28;20029;-80
2023/09/29 06:51:11;;;;;;;28.17;18.02;;;;;;;;;;5002119;28;20022;-80
2023/09/29 06:53:49;;;;;;;21.52;14.07;;;;;;;;;;5001461;28;20048;-96
2023/09/29 06:56:15;;;;;;;22.20;13.90;;;;;;;;;;5004266;28;20068;-95
2023/09/29 06:58:41;;;;;;;24.35;13.88;;;;;;;;;;5002228;28;20022;-95
2023/09/29 07:01:07;;;;;;;23.65;13.90;;;;;;;;;;4991312;28;20084;-96
2023/09/29 07:03:39;;;;;;;23.15;13.70;;;;;;;;;;4983816;28;20022;-96
2023/09/29 07:06:30;;;;;;;26.77;13.70;;;;;;;;;;4983485;28;20034;-95
2023/09/29 07:09:06;;;;;;;17.70;13.37;;;;;;;;;;5001661;28;20046;-95
2023/09/29 07:11:40;;;;;;;23.15;14.18;;;;;;;;;;4989458;28;20030;-96
2023/09/29 07:14:06;;;;;;;28.90;15.50;;;;;;;;;;4990800;28;20422;-94
2023/09/29 07:16:32;;;;;;;21.88;13.93;;;;;;;;;;4981109;28;20027;-93
2023/09/29 07:18:58;;;;;;;22.13;16.52;;;;;;;;;;4986618;28;20027;-93
2023/09/29 07:24:28;;;;;;;22.50;14.10;;;;;;;;;;5000278;28;20041;-94
2023/09/29 07:26:54;;;;;;;21.58;15.32;;;;;;;;;;4999398;28;20023;-94
2023/09/29 07:29:21;;;;;;;25.10;15.20;;;;;;;;;;4999049;28;20297;-93
2023/09/29 07:31:48;;;;;;;27.45;14.68;;;;;;;;;;4991103;28;20030;-93
2023/09/29 07:34:15;;;;;;;23.05;14.60;;;;;;;;;;4982788;28;20037;-92
2023/09/29 07:36:43;;;;;;;26.77;14.80;;;;;;;;;;4982488;28;20030;-93
2023/09/29 07:39:13;;;;;;;19.75;14.15;;;;;;;;;;5000505;28;20038;-94
2023/09/29 07:41:46;;;;;;;23.90;14.52;;;;;;;;;;4987897;28;20033;-94
2023/09/29 07:44:12;;;;;;;28.35;14.75;;;;;;;;;;4996405;28;20029;-94
2023/09/29 07:46:38;;;;;;;18.42;13.25;;;;;;;;;;4995929;28;20023;-93
2023/09/29 07:49:05;;;;;;;18.65;13.18;;;;;;;;;;4996451;28;20041;-94
2023/09/29 07:51:32;;;;;;;20.08;14.75;;;;;;;;;;5002907;28;20031;-91
2023/09/29 07:53:58;;;;;;;31.05;14.25;;;;;;;;;;5058832;22;20377;-94
2023/09/29 07:56:24;;;;;;;31.02;14.20;;;;;;;;;;5005495;28;20424;-94
2023/09/29 07:58:52;;;;;;;26.27;14.50;;;;;;;;;;5037803;28;20029;-94
2023/09/29 08:01:18;;;;;;;34.70;15.00;;;;;;;;;;5038792;28;20025;-94
2023/09/29 08:03:44;;;;;;;29.50;14.68;;;;;;;;;;5038545;28;20032;-94
2023/09/29 08:06:10;;;;;;;31.48;13.88;;;;;;;;;;5038702;28;20096;-93
2023/09/29 08:08:36;;;;;;;28.48;13.90;;;;;;;;;;5022197;28;20025;-91
2023/09/29 08:11:03;;;;;;;23.42;12.95;;;;;;;;;;5010299;28;20041;-93
2023/09/29 08:13:29;;;;;;;21.30;12.45;;;;;;;;;;5001553;28;20116;-93
2023/09/29 08:15:58;;;;;;;25.27;13.45;;;;;;;;;;5002107;28;20026;-94
2023/09/29 08:18:24;;;;;;;19.27;11.25;;;;;;;;;;5002773;28;20038;-95
2023/09/29 08:23:54;;;;;;;24.50;12.98;;;;;;;;;;5019532;28;20037;-91
2023/09/29 08:26:40;;;;;;;31.80;12.75;;;;;;;;;;5026830;28;20034;-96
2023/09/29 08:29:24;;;;;;;18.13;13.65;;;;;;;;;;5163031;23;20384;-90
2023/09/29 08:40:36;;;;;;;15.30;11.02;;;;;;;;;;4985198;28;20026;-96
2023/09/29 08:43:16;;;;;;;;;;;;;;;;;;;;;
2023/09/29 08:51:34;;;;;;;15.77;7.88;;;;;;;;;;5045964;28;20064;-93
2023/09/29 08:54:27;;;;;;;16.33;8.02;;;;;;;;;;5186012;22;20016;-95
2023/09/29 08:56:53;;;;;;;19.23;9.60;;;;;;;;;;5033420;28;20128;-91
2023/09/29 08:59:19;;;;;;;22.30;10.00;;;;;;;;;;5019581;28;20048;-93
2023/09/29 09:01:46;;;;;;;18.05;9.95;;;;;;;;;;5022736;28;20026;-92
2023/09/29 09:04:12;;;;;;;32.45;11.60;;;;;;;;;;5038634;23;20074;-91
2023/09/29 09:06:38;;;;;;;27.75;11.27;;;;;;;;;;5019556;28;20037;-93
2023/09/29 09:09:04;;;;;;;18.77;10.73;;;;;;;;;;5017203;28;20107;-92
2023/09/29 09:11:41;;;;;;;17.92;9.55;;;;;;;;;;5018763;28;20037;-92
2023/09/29 09:14:10;;;;;;;16.63;8.63;;;;;;;;;;5022857;28;20021;-92
2023/09/29 09:16:40;;;;;;;30.08;10.25;;;;;;;;;;4997816;28;20125;-93
2023/09/29 09:19:09;;;;;;;17.50;8.38;;;;;;;;;;5018638;28;20157;-93
2023/09/29 09:21:35;;;;;;;20.63;11.80;;;;;;;;;;5018485;28;20317;-95
2023/09/29 09:24:02;;;;;;;15.63;8.50;;;;;;;;;;5022812;28;20037;-95
2023/09/29 09:26:31;;;;;;;15.57;8.40;;;;;;;;;;4993197;28;20352;-94
2023/09/29 09:29:09;;;;;;;12.05;8.35;;;;;;;;;;4999053;28;20040;-93
2023/09/29 09:31:43;;;;;;;10.90;7.68;;;;;;;;;;4999328;28;20085;-94
2023/09/29 09:34:09;;;;;;;12.90;7.55;;;;;;;;;;5000858;28;20348;-92
2023/09/29 09:36:44;;;;;;;12.10;7.05;;;;;;;;;;4998135;28;20042;-93
2023/09/29 09:39:11;;;;;;;12.38;7.00;;;;;;;;;;4997734;28;20037;-94
2023/09/29 09:41:38;;;;;;;12.50;6.30;;;;;;;;;;4981763;28;20022;-93
2023/09/29 09:44:04;;;;;;;11.05;6.38;;;;;;;;;;4980808;28;20022;-93
2023/09/29 09:46:33;;;;;;;12.50;6.60;;;;;;;;;;4993182;28;20408;-93
2023/09/29 09:49:10;;;;;;;11.75;6.90;;;;;;;;;;4980135;28;20030;-91
2023/09/29 09:52:15;;;;;;;13.30;7.20;;;;;;;;;;4980645;28;20030;-92
2023/09/29 09:54:53;;;;;;;11.00;6.65;;;;;;;;;;4977681;28;20106;-91
2023/09/29 09:57:23;;;;;;;7.47;5.78;;;;;;;;;;4977388;28;20027;-92
2023/09/29 09:59:50;;;;;;;9.93;5.75;;;;;;;;;;4977268;28;20026;-92
2023/09/29 10:02:18;;;;;;;11.43;6.07;;;;;;;;;;4977325;28;20026;-91
2023/09/29 10:04:44;;;;;;;8.27;6.05;;;;;;;;;;4977137;28;20051;-92
2023/09/29 10:07:11;;;;;;;10.73;6.03;;;;;;;;;;4979828;28;20033;-91
2023/09/29 10:09:42;;;;;;;13.43;5.75;;;;;;;;;;4981655;28;20026;-92
2023/09/29 10:12:09;;;;;;;12.82;6.55;;;;;;;;;;4981144;28;20031;-94
2023/09/29 10:14:45;;;;;;;15.38;7.35;;;;;;;;;;4995297;28;20030;-94
2023/09/29 10:17:13;;;;;;;11.27;5.38;;;;;;;;;;5009030;28;20034;-86
2023/09/29 10:19:39;;;;;;;12.15;5.72;;;;;;;;;;4999741;28;20038;-85
2023/09/29 10:22:06;;;;;;;11.38;5.75;;;;;;;;;;5000557;28;20077;-84
2023/09/29 10:24:33;;;;;;;10.73;6.82;;;;;;;;;;4983484;28;20316;-83
2023/09/29 10:27:03;;;;;;;7.35;6.50;;;;;;;;;;5000383;28;20029;-85
2023/09/29 10:29:29;;;;;;;11.13;5.95;;;;;;;;;;5000653;28;20057;-84
2023/09/29 10:32:10;;;;;;;9.25;6.75;;;;;;;;;;4996535;28;20026;-83
2023/09/29 10:34:36;;;;;;;14.20;5.75;;;;;;;;;;4983051;28;20038;-84
2023/09/29 10:37:03;;;;;;;11.50;5.18;;;;;;;;;;4999735;28;20113;-83
2023/09/29 10:39:30;;;;;;;11.35;5.00;;;;;;;;;;5000383;28;20034;-83
2023/09/29 10:42:03;;;;;;;11.20;5.88;;;;;;;;;;4999018;28;20018;-83
2023/09/29 10:44:29;;;;;;;10.25;5.57;;;;;;;;;;4982909;28;20037;-83
2023/09/29 10:46:56;;;;;;;9.70;5.60;;;;;;;;;;4982955;28;20063;-83
2023/09/29 10:49:31;;;;;;;8.82;5.53;;;;;;;;;;5000212;28;20409;-89
2023/09/29 10:52:34;;;;;;;12.82;5.75;;;;;;;;;;5000280;28;20344;-89
2023/09/29 10:55:00;;;;;;;7.55;5.38;;;;;;;;;;4980929;28;20047;-90
2023/09/29 10:57:28;;;;;;;12.70;6.30;;;;;;;;;;4979699;28;20046;-89
2023/09/29 10:59:59;;;;;;;10.80;5.90;;;;;;;;;;4981014;28;20035;-90
2023/09/29 11:02:30;;;;;;;11.85;5.10;;;;;;;;;;4981183;28;20057;-88
2023/09/29 11:04:57;;;;;;;12.68;5.63;;;;;;;;;;4980655;28;20054;-88
2023/09/29 11:07:29;;;;;;;12.10;5.90;;;;;;;;;;4980001;28;20031;-90
2023/09/29 11:09:55;;;;;;;8.75;5.20;;;;;;;;;;4981192;28;20022;-88
2023/09/29 11:12:26;;;;;;;11.65;5.28;;;;;;;;;;4999416;28;20049;-89
2023/09/29 11:14:53;;;;;;;12.40;5.30;;;;;;;;;;4998275;28;20054;-89
2023/09/29 11:17:19;;;;;;;12.38;4.80;;;;;;;;;;4982566;28;20062;-89
2023/09/29 11:19:54;;;;;;;10.07;5.10;;;;;;;;;;4982736;28;20026;-88
2023/09/29 11:22:38;;;;;;;7.93;5.03;;;;;;;;;;5000096;28;20035;-90
2023/09/29 11:25:05;;;;;;;10.23;4.68;;;;;;;;;;4999401;28;20045;-85
2023/09/29 11:27:32;;;;;;;9.82;4.75;;;;;;;;;;4999208;28;20027;-84
2023/09/29 11:29:58;;;;;;;7.60;4.00;;;;;;;;;;4999828;28;20022;-84
2023/09/29 11:32:24;;;;;;;11.57;5.88;;;;;;;;;;4982187;28;20027;-84
2023/09/29 11:34:51;;;;;;;9.02;5.97;;;;;;;;;;4999632;28;20057;-84
2023/09/29 11:37:18;;;;;;;9.60;4.47;;;;;;;;;;4982291;28;20046;-84
2023/09/29 11:39:44;;;;;;;9.77;4.60;;;;;;;;;;4982241;28;20026;-85
2023/09/29 11:42:11;;;;;;;9.52;4.30;;;;;;;;;;4999507;28;20145;-85
2023/09/29 11:44:37;;;;;;;7.95;4.13;;;;;;;;;;4982156;28;20084;-83
2023/09/29 11:47:03;;;;;;;8.48;3.85;;;;;;;;;;4982025;28;20026;-84
2023/09/29 11:49:29;;;;;;;7.88;4.55;;;;;;;;;;4981641;28;20030;-83
2023/09/29 11:51:56;;;;;;;7.57;5.03;;;;;;;;;;4999207;28;20026;-84
2023/09/29 11:54:23;;;;;;;23.00;8.23;;;;;;;;;;4981980;28;20034;-84
2023/09/29 11:56:49;;;;;;;20.42;7.00;;;;;;;;;;4999219;28;20042;-84
2023/09/29 11:59:15;;;;;;;19.65;5.85;;;;;;;;;;4998271;28;20027;-84
2023/09/29 12:01:41;;;;;;;10.15;4.25;;;;;;;;;;4998562;28;20068;-84
2023/09/29 12:04:08;;;;;;;7.32;4.93;;;;;;;;;;4981184;28;20487;-83
2023/09/29 12:06:34;;;;;;;8.55;4.50;;;;;;;;;;4998728;28;20072;-83
2023/09/29 12:09:00;;;;;;;12.07;4.93;;;;;;;;;;4998761;28;20022;-83
2023/09/29 12:11:26;;;;;;;8.55;4.63;;;;;;;;;;4981684;28;20022;-83
2023/09/29 12:13:52;;;;;;;7.47;4.50;;;;;;;;;;4998412;28;20026;-82
2023/09/29 12:16:19;;;;;;;9.48;4.85;;;;;;;;;;4998575;28;20023;-83
2023/09/29 12:18:45;;;;;;;11.60;4.13;;;;;;;;;;4998657;28;20026;-83
2023/09/29 12:21:11;;;;;;;8.80;4.22;;;;;;;;;;4998362;28;20033;-84
2023/09/29 12:23:37;;;;;;;9.77;4.00;;;;;;;;;;4977956;28;20035;-83
2023/09/29 12:26:05;;;;;;;12.18;4.68;;;;;;;;;;4998198;28;20058;-87
2023/09/29 12:28:31;;;;;;;6.00;4.22;;;;;;;;;;4980702;28;20030;-83
2023/09/29 12:30:57;;;;;;;5.13;3.78;;;;;;;;;;4998159;28;20030;-83
2023/09/29 12:33:24;;;;;;;6.70;3.90;;;;;;;;;;4998383;28;20105;-83
2023/09/29 12:36:10;;;;;;;8.88;3.90;;;;;;;;;;4981329;28;20036;-83
2023/09/29 12:38:36;;;;;;;6.93;3.85;;;;;;;;;;4997784;28;20031;-83
2023/09/29 12:41:02;;;;;;;6.50;3.80;;;;;;;;;;4998178;28;20116;-83
2023/09/29 12:43:28;;;;;;;8.88;4.65;;;;;;;;;;4992883;28;20122;-83
2023/09/29 12:45:55;;;;;;;14.32;9.95;;;;;;;;;;4999588;28;20023;-83
2023/09/29 12:48:21;;;;;;;6.72;3.83;;;;;;;;;;5017786;28;20048;-83
2023/09/29 12:50:48;;;;;;;8.55;4.15;;;;;;;;;;4998956;28;20125;-83
2023/09/29 12:53:14;;;;;;;17.63;12.00;;;;;;;;;;4980463;28;20117;-83
2023/09/29 12:55:40;;;;;;;5.70;3.92;;;;;;;;;;4996970;28;20022;-83
2023/09/29 12:58:09;;;;;;;7.38;4.15;;;;;;;;;;4986878;28;20121;-82
2023/09/29 13:00:35;;;;;;;8.77;3.83;;;;;;;;;;4980656;28;20049;-83
2023/09/29 13:03:05;;;;;;;6.30;3.70;;;;;;;;;;4998029;28;20105;-83
2023/09/29 13:17:55;;;;;;;7.90;3.88;;;;;;;;;;5074710;27;20420;-93
2023/09/29 13:20:21;;;;;;;6.25;3.60;;;;;;;;;;5074187;28;20468;-94
2023/09/29 13:25:51;;;;;;;6.93;3.63;;;;;;;;;;5075014;28;20040;-94
2023/09/29 13:39:30;;;;;;;5.43;3.42;;;;;;;;;;5673241;23;20053;-94
2023/09/29 13:41:56;;;;;;;7.95;4.18;;;;;;;;;;4993519;28;20047;-85
2023/09/29 13:44:22;;;;;;;6.25;3.78;;;;;;;;;;4994793;28;20030;-85
2023/09/29 13:46:49;;;;;;;10.05;4.05;;;;;;;;;;4993752;28;20137;-84
2023/09/29 13:49:15;;;;;;;7.95;4.10;;;;;;;;;;4993620;28;20121;-84
2023/09/29 13:58:06;;;;;;;8.77;4.55;;;;;;;;;;4975786;28;20099;-92
2023/09/29 14:00:32;;;;;;;8.73;4.20;;;;;;;;;;4980301;28;20033;-91
2023/09/29 14:03:01;;;;;;;9.10;4.53;;;;;;;;;;4993983;28;20027;-94
2023/09/29 14:05:27;;;;;;;7.22;4.10;;;;;;;;;;4994797;28;20054;-94
2023/09/29 14:08:33;;;;;;;11.88;4.28;;;;;;;;;;4993675;28;20059;-94
2023/09/29 14:11:02;;;;;;;10.45;4.00;;;;;;;;;;5014072;28;20026;-94
2023/09/29 14:13:28;;;;;;;8.20;4.60;;;;;;;;;;5013593;28;20034;-94
2023/09/29 14:15:55;;;;;;;9.18;4.20;;;;;;;;;;5014253;28;20297;-93
2023/09/29 14:18:21;;;;;;;6.78;4.03;;;;;;;;;;4985901;28;20042;-94
2023/09/29 14:20:47;;;;;;;8.50;3.90;;;;;;;;;;4972651;28;20057;-92
2023/09/29 14:23:32;;;;;;;9.73;3.78;;;;;;;;;;4961162;29;20035;-93
2023/09/29 14:25:58;;;;;;;8.38;4.03;;;;;;;;;;4964379;28;20526;-95
2023/09/29 14:28:24;;;;;;;10.48;4.72;;;;;;;;;;4981060;28;20413;-94
2023/09/29 14:30:50;;;;;;;8.68;4.35;;;;;;;;;;4980032;28;20027;-94
2023/09/29 14:33:17;;;;;;;9.85;4.47;;;;;;;;;;4980476;28;20321;-93
2023/09/29 14:35:43;;;;;;;8.52;4.50;;;;;;;;;;4979968;28;20033;-93
2023/09/29 14:38:10;;;;;;;8.50;4.00;;;;;;;;;;4980063;28;20031;-92
2023/09/29 14:40:36;;;;;;;7.13;3.97;;;;;;;;;;4980593;28;20067;-92
2023/09/29 14:43:04;;;;;;;13.43;4.68;;;;;;;;;;4980607;28;20097;-88
2023/09/29 14:45:30;;;;;;;11.55;4.40;;;;;;;;;;4992659;28;20030;-90
2023/09/29 14:47:56;;;;;;;9.65;3.95;;;;;;;;;;4996994;28;20089;-89
2023/09/29 14:50:22;;;;;;;15.25;4.18;;;;;;;;;;4980377;28;20349;-89
2023/09/29 14:52:48;;;;;;;11.55;4.38;;;;;;;;;;4979802;28;20031;-92
2023/09/29 14:55:14;;;;;;;16.08;4.18;;;;;;;;;;4996994;28;20053;-88
2023/09/29 14:57:40;;;;;;;10.95;4.20;;;;;;;;;;4999129;28;20022;-87
2023/09/29 15:00:07;;;;;;;8.52;3.63;;;;;;;;;;4991059;28;20104;-87
2023/09/29 15:02:33;;;;;;;9.60;4.30;;;;;;;;;;4974537;28;20041;-89
2023/09/29 15:04:59;;;;;;;10.52;4.03;;;;;;;;;;4979582;28;20077;-91
2023/09/29 15:13:32;;;;;;;7.38;3.95;;;;;;;;;;4963451;28;20077;-89
2023/09/29 15:15:58;;;;;;;8.57;3.80;;;;;;;;;;4979699;28;20393;-89
2023/09/29 15:18:24;;;;;;;11.40;3.97;;;;;;;;;;4979611;28;20023;-88
2023/09/29 15:20:51;;;;;;;9.73;3.95;;;;;;;;;;4979221;28;20042;-87
2023/09/29 15:23:18;;;;;;;6.85;3.85;;;;;;;;;;4978633;28;20027;-86
2023/09/29 15:25:46;;;;;;;12.00;4.72;;;;;;;;;;4979182;28;20432;-88
2023/09/29 15:28:13;;;;;;;11.38;3.90;;;;;;;;;;4979092;28;20484;-86
2023/09/29 15:30:46;;;;;;;8.68;4.13;;;;;;;;;;4969273;28;20043;-87
2023/09/29 15:33:13;;;;;;;10.50;4.18;;;;;;;;;;4964200;28;20023;-95
2023/09/29 15:36:00;;;;;;;9.60;4.38;;;;;;;;;;4979815;28;20027;-89
2023/09/29 15:38:27;;;;;;;17.52;4.55;;;;;;;;;;4971656;28;20030;-90
2023/09/29 15:40:53;;;;;;;12.77;5.10;;;;;;;;;;4978953;28;20129;-92
2023/09/29 15:43:19;;;;;;;17.48;4.35;;;;;;;;;;4978850;28;20043;-80
2023/09/29 15:45:45;;;;;;;11.68;4.22;;;;;;;;;;4978200;28;20421;-80
2023/09/29 15:48:12;;;;;;;10.25;3.45;;;;;;;;;;4978477;28;20104;-89
2023/09/29 15:50:38;;;;;;;12.68;4.35;;;;;;;;;;4980013;28;20503;-91
2023/09/29 15:53:04;;;;;;;9.82;4.60;;;;;;;;;;4979067;28;20117;-90
2023/09/29 15:55:31;;;;;;;11.88;4.60;;;;;;;;;;4979942;28;20027;-90
2023/09/29 15:57:57;;;;;;;13.70;4.82;;;;;;;;;;4978608;28;20027;-90
2023/09/29 16:00:23;;;;;;;13.20;4.97;;;;;;;;;;4978020;28;20125;-90
2023/09/29 16:02:49;;;;;;;10.30;4.72;;;;;;;;;;4979923;28;20030;-90
2023/09/29 16:05:15;;;;;;;13.27;5.72;;;;;;;;;;4979920;28;20023;-94
2023/09/29 16:08:02;;;;;;;14.07;5.00;;;;;;;;;;4978098;28;20418;-87
2023/09/29 16:10:28;;;;;;;16.63;5.53;;;;;;;;;;4959945;28;20464;-88
2023/09/29 16:12:54;;;;;;;13.35;5.82;;;;;;;;;;4959240;29;20058;-89
2023/09/29 16:15:20;;;;;;;20.80;5.63;;;;;;;;;;4968748;28;20114;-86
2023/09/29 16:17:46;;;;;;;10.52;4.40;;;;;;;;;;4979384;28;20023;-89
2023/09/29 16:20:12;;;;;;;14.95;5.47;;;;;;;;;;4978606;28;20027;-89
2023/09/29 16:22:38;;;;;;;9.57;4.68;;;;;;;;;;4978479;28;20034;-88
2023/09/29 16:25:05;;;;;;;17.10;5.10;;;;;;;;;;4978005;28;20022;-87